Date,TemperatureHighF,TemperatureAvgF,TemperatureLowF,DewpointHighF,DewpointAvgF,DewpointLowF,HumidityHigh,HumidityAvg,HumidityLow,PressureMaxIn,PressureMinIn,WindSpeedMaxMPH,WindSpeedAvgMPH,GustSpeedMaxMPH,PrecipitationSumIn
2013-1-1,62.8,51.7,44.8,59.5,45.0,30.0,91,78,55,30.21,29.91,1,0,0,1.38
2013-1-2,44.8,40.7,37.6,30.3,25.9,23.1,60,55,50,30.33,30.18,1,0,0,0.00
2013-1-3,51.6,42.2,33.3,25.1,20.2,15.0,63,44,26,30.48,30.30,0,0,0,0.00
2013-1-4,45.9,43.3,40.6,21.6,19.8,18.5,44,39,34,30.59,30.39,0,0,0,0.00
2013-1-5,43.7,41.7,39.7,38.0,33.1,19.7,83,72,38,30.44,30.30,2,0,0,0.70
2013-1-6,56.3,44.4,35.6,38.4,31.5,23.0,86,63,33,30.42,30.21,4,0,4,0.00
2013-1-7,55.4,43.6,32.5,34.1,26.5,23.0,74,53,30,30.44,30.18,0,0,0,0.00
2013-1-8,60.3,53.0,46.0,57.6,45.7,29.6,97,78,51,30.21,29.94,9,1,9,0.29
2013-1-9,64.2,61.4,58.3,63.1,59.5,55.4,97,93,90,30.00,29.83,13,3,13,1.42
2013-1-10,64.8,58.8,51.1,61.4,51.2,37.6,98,79,39,30.06,29.88,14,2,14,0.29
2013-1-11,69.4,56.4,42.1,57.0,40.3,29.1,90,60,23,30.09,29.83,10,2,10,0.00
2013-1-12,70.9,69.0,62.2,67.4,60.4,53.2,96,75,55,29.91,29.62,20,7,20,0.00
2013-1-13,69.6,48.5,40.5,60.2,37.5,27.0,83,66,51,30.15,29.65,13,5,13,0.00
2013-1-14,42.4,38.8,35.6,31.5,28.5,24.6,80,67,56,30.27,30.06,10,4,10,0.38
2013-1-15,37.2,34.7,32.5,28.2,26.3,24.0,78,71,61,30.21,30.06,10,3,10,0.04
2013-1-16,49.5,38.6,32.7,26.0,18.4,8.7,76,47,26,30.39,30.06,10,3,10,0.00
2013-1-17,59.7,40.5,27.5,19.1,14.9,10.4,55,38,18,30.65,30.30,1,1,1,0.00
2013-1-18,60.3,42.4,31.1,27.8,18.0,11.6,70,41,16,30.74,30.39,8,1,8,0.00
2013-1-19,63.1,44.8,30.7,32.1,23.9,15.1,65,46,24,30.56,30.18,8,1,8,0.00
2013-1-20,69.1,49.7,35.6,42.5,29.1,25.1,77,49,22,30.44,30.06,6,1,6,0.00
2013-1-21,67.5,50.4,39.0,44.1,30.6,26.3,76,50,23,30.39,30.15,6,0,6,0.00
2013-1-22,67.6,50.4,38.5,33.0,28.7,24.7,68,46,23,30.48,30.21,8,1,8,0.00
2013-1-23,70.9,54.4,39.7,48.3,33.9,26.6,82,49,23,30.44,30.18,12,2,12,0.00
2013-1-24,69.1,59.7,51.6,57.0,47.7,37.5,88,66,42,30.33,30.12,12,2,12,0.00
2013-1-25,74.3,62.7,56.5,60.1,46.5,35.0,90,60,24,30.18,30.00,10,2,10,0.00
2013-1-26,74.3,61.5,54.0,61.7,43.9,33.3,92,57,23,30.21,30.00,12,1,12,0.00
2013-1-27,72.0,62.9,53.8,53.7,45.3,38.9,83,55,32,30.18,30.03,14,4,14,0.00
2013-1-28,73.9,67.7,63.9,54.7,48.9,39.9,70,53,31,30.12,29.94,16,5,16,0.00
2013-1-29,72.5,68.7,57.0,62.1,54.8,40.1,77,62,42,29.97,29.59,26,8,26,0.00
2013-1-30,56.8,50.6,36.0,49.0,21.3,5.4,79,36,17,30.33,29.68,15,4,15,0.00
2013-1-31,62.2,46.6,30.4,25.0,15.4,9.2,62,32,15,30.44,30.18,10,2,10,0.33
2013-2-1,66.6,51.9,41.5,28.7,22.5,14.7,52,34,15,30.48,30.24,10,2,10,0.00
2013-2-2,69.1,53.7,40.1,40.1,29.9,23.2,72,42,23,30.36,30.12,10,1,10,0.00
2013-2-3,67.5,53.8,42.8,39.6,25.1,11.9,72,38,14,30.36,30.06,8,1,8,0.00
2013-2-4,64.2,54.6,42.4,51.6,38.2,21.1,75,54,40,30.15,29.83,10,1,10,0.04
2013-2-5,72.7,62.8,58.5,61.3,49.2,38.3,88,64,31,30.00,29.80,2,0,2,0.05
2013-2-6,61.0,59.0,57.2,55.9,53.2,49.5,86,81,69,30.03,29.83,10,0,10,0.67
2013-2-7,63.3,58.7,53.4,54.8,49.9,44.5,87,74,51,29.94,29.83,4,0,4,0.00
2013-2-8,60.8,56.7,48.7,51.6,37.9,31.1,79,51,34,30.15,29.94,10,3,10,0.00
2013-2-9,63.7,54.4,43.9,53.1,41.0,32.1,73,61,45,30.18,29.85,15,3,15,0.00
2013-2-10,71.1,63.2,57.9,60.2,52.0,37.8,80,67,40,29.91,29.68,23,3,23,0.21
2013-2-11,59.0,52.4,49.6,51.4,40.5,27.6,82,66,36,30.15,29.88,9,2,9,0.37
2013-2-12,58.3,54.0,50.7,55.1,48.8,42.2,89,83,72,30.00,29.71,9,1,9,0.25
2013-2-13,56.3,48.3,38.5,42.0,25.4,18.7,72,42,25,30.12,29.88,10,3,10,0.00
2013-2-14,60.6,45.5,31.6,33.9,22.4,16.1,80,44,18,30.21,30.00,5,1,5,0.00
2013-2-15,63.7,48.3,34.7,34.4,20.9,13.9,72,37,17,30.36,30.12,8,1,8,0.00
2013-2-16,56.1,44.1,32.4,14.1,9.0,5.2,39,25,14,30.50,30.24,13,2,13,0.00
2013-2-17,66.0,49.3,32.7,29.6,20.1,12.8,60,34,17,30.36,30.06,0,0,0,0.00
2013-2-18,70.3,61.5,47.1,55.3,39.4,24.0,78,46,31,30.15,29.83,20,2,20,0.43
2013-2-19,66.6,51.2,40.8,44.8,21.0,4.7,73,34,13,30.21,30.03,11,2,11,0.00
2013-2-20,61.5,51.8,45.5,23.7,16.8,6.0,30,25,15,30.21,29.91,14,4,14,0.00
2013-2-21,73.8,61.6,53.4,59.5,45.0,24.4,90,56,31,29.91,29.68,21,5,21,0.04
2013-2-22,62.8,54.7,50.2,43.8,34.1,25.3,77,48,25,30.03,29.83,2,0,3,0.00
2013-2-23,69.8,53.7,44.6,30.6,26.8,22.0,53,37,19,30.03,29.85,1,1,2,0.00
2013-2-24,70.9,54.7,37.9,36.5,28.0,22.1,75,40,21,30.00,29.68,0,0,0,0.00
2013-2-25,74.1,60.9,45.5,58.1,30.9,2.0,81,40,12,29.71,29.35,13,1,13,0.00
2013-2-26,62.2,49.7,40.5,19.1,11.8,4.2,38,22,15,30.00,29.65,14,3,14,0.00
2013-2-27,73.4,52.4,37.0,28.8,17.4,1.1,59,29,13,30.21,29.88,12,3,12,0.00
2013-2-28,55.6,43.0,35.8,14.3,8.5,0.0,39,25,17,30.36,30.12,12,2,12,0.00
2013-3-1,61.7,46.5,31.5,16.9,10.0,2.6,42,25,13,30.33,30.06,12,3,12,0.00
2013-3-2,51.8,40.4,28.8,12.9,6.8,-2.2,40,26,15,30.39,30.24,12,1,12,0.00
2013-3-3,67.5,45.6,25.7,22.3,11.6,4.2,49,28,12,30.42,30.06,10,2,10,0.00
2013-3-4,74.5,62.0,42.1,44.0,35.0,19.5,60,39,21,30.09,29.71,21,5,21,0.00
2013-3-5,68.9,60.2,41.9,46.8,24.3,0.0,57,29,12,30.39,29.88,13,3,13,0.00
2013-3-6,66.9,47.0,31.1,12.9,7.4,-1.9,33,21,12,30.50,30.24,7,1,7,0.00
2013-3-7,70.2,49.9,32.0,24.2,16.2,8.7,51,29,14,30.44,30.18,10,2,10,0.00
2013-3-8,74.3,56.1,39.4,35.3,28.3,17.9,58,37,20,30.33,30.06,14,3,14,0.00
2013-3-9,72.9,62.3,53.8,51.1,40.7,31.9,71,46,26,30.15,29.83,21,5,21,0.00
2013-3-10,66.4,58.3,48.2,50.4,42.2,18.2,81,57,29,30.06,29.77,20,4,20,0.29
2013-3-11,61.5,48.3,37.0,18.6,13.5,3.9,40,26,14,30.18,29.94,10,2,10,0.00
2013-3-12,57.2,35.9,30.0,22.6,14.9,11.6,56,43,19,30.27,30.15,5,0,5,0.00
2013-3-13,72.9,53.4,35.4,26.2,17.2,4.8,60,28,12,30.50,30.27,8,2,8,0.00
2013-3-14,75.6,53.8,35.6,25.9,17.4,11.9,50,27,13,30.50,30.24,11,2,11,0.00
2013-3-15,80.6,59.2,39.9,44.5,28.4,16.3,69,35,14,30.36,30.03,14,3,14,0.00
2013-3-16,81.3,65.0,55.4,50.0,38.4,24.7,79,43,14,30.12,29.83,18,4,18,0.00
2013-3-17,79.7,66.2,56.7,55.0,45.0,35.2,76,49,22,29.94,29.71,20,4,20,0.00
2013-3-18,88.0,73.3,65.5,56.8,45.8,33.3,71,43,17,29.88,29.59,13,3,13,0.00
2013-3-19,81.9,66.6,50.9,48.3,28.9,17.2,58,26,11,30.03,29.83,9,2,9,0.00
2013-3-20,62.8,61.0,60.1,33.2,23.0,16.2,33,23,18,30.06,29.97,10,3,10,0.00
2013-3-21,70.2,57.8,44.2,36.5,24.2,15.5,40,28,14,30.09,29.77,20,5,20,0.00
2013-3-22,84.4,70.3,61.0,57.5,46.0,35.2,75,45,20,29.83,29.59,16,4,16,0.00
2013-3-23,69.6,66.6,63.3,56.1,51.3,42.7,69,58,47,29.74,29.53,5,1,5,0.00
2013-3-24,63.1,54.9,39.7,53.2,23.0,2.8,81,34,14,30.15,29.59,14,4,14,0.00
2013-3-25,60.1,45.3,32.0,14.0,8.1,1.7,46,24,13,30.39,30.15,10,2,10,0.00
2013-3-26,60.6,40.0,29.3,10.1,4.4,-4.5,31,24,13,30.44,30.30,9,1,9,0.00
2013-3-27,70.7,57.8,35.0,20.4,16.9,11.9,45,21,13,30.53,30.21,11,3,11,0.00
2013-3-28,73.2,58.4,45.1,43.1,28.9,19.4,65,34,21,30.39,30.18,12,3,12,0.00
2013-3-29,76.5,61.6,49.8,55.0,39.3,29.5,86,50,21,30.33,30.12,14,3,14,0.00
2013-3-30,72.5,65.5,61.3,49.6,41.5,32.3,64,44,23,30.00,29.97,10,4,10,0.00
2013-3-31,79.5,62.9,56.8,57.7,50.6,28.0,90,69,23,30.00,29.88,18,2,18,0.30
2013-4-1,80.6,70.5,57.7,58.2,39.7,31.9,88,36,20,30.12,29.91,9,2,9,0.00
2013-4-2,75.7,65.6,55.2,56.4,41.7,32.4,89,47,24,30.06,29.85,13,2,13,0.00
2013-4-3,62.2,52.9,46.8,57.4,43.4,32.5,89,71,47,30.12,29.80,9,3,9,1.05
2013-4-4,51.1,47.2,44.6,41.2,32.7,23.9,83,59,39,30.21,30.06,7,1,7,0.04
2013-4-5,73.2,59.1,44.2,31.9,23.9,16.4,53,29,13,30.27,30.03,8,2,8,0.00
2013-4-6,72.9,58.1,45.5,49.0,34.0,27.9,82,45,21,30.18,29.94,16,3,16,0.00
2013-4-7,76.5,66.2,53.8,48.9,38.9,30.5,67,40,20,30.03,29.83,15,6,15,0.00
2013-4-8,77.4,68.8,63.0,58.8,45.4,34.7,81,46,24,29.91,29.77,22,7,22,0.00
2013-4-9,79.2,70.9,64.9,54.5,49.6,43.4,69,48,30,29.83,29.71,20,6,20,0.00
2013-4-10,77.7,67.3,47.5,63.2,49.9,37.2,85,56,34,29.83,29.62,21,6,21,0.71
2013-4-11,65.1,50.4,42.1,42.8,33.8,21.4,87,59,20,29.97,29.71,5,0,5,1.25
2013-4-12,79.9,56.8,40.6,42.6,27.3,16.1,86,40,11,30.09,29.83,0,0,0,0.00
2013-4-13,80.8,61.0,44.8,43.2,28.6,17.2,73,35,11,30.12,29.80,14,2,14,0.00
2013-4-14,82.6,66.5,55.4,47.5,39.5,29.4,71,41,16,29.88,29.59,10,2,10,0.00
2013-4-15,85.6,70.7,59.0,61.8,50.3,36.6,88,55,19,29.85,29.68,13,3,13,0.00
2013-4-16,79.9,72.8,69.6,67.2,58.4,45.3,88,64,32,29.88,29.74,16,4,16,0.00
2013-4-17,75.7,72.5,70.3,63.7,56.4,49.0,79,58,40,29.88,29.68,18,7,18,0.00
2013-4-18,75.7,65.1,48.4,64.2,48.4,29.9,77,56,39,30.00,29.59,23,6,23,0.21
2013-4-19,63.7,50.1,40.5,31.0,17.6,7.9,52,30,14,30.24,29.97,10,1,10,0.00
2013-4-20,71.6,51.8,35.1,28.6,19.0,11.9,62,32,13,30.33,30.06,13,2,13,0.00
2013-4-21,75.6,56.6,41.7,37.0,26.7,18.7,77,37,13,30.30,30.03,9,1,9,0.00
2013-4-22,80.6,61.9,47.1,38.7,29.3,19.4,69,35,11,30.24,29.91,9,2,9,0.00
2013-4-23,78.1,65.5,51.4,53.8,41.9,33.3,73,45,24,30.03,29.88,14,2,14,0.00
2013-4-24,68.4,58.0,46.2,61.6,34.6,23.1,79,45,22,30.21,29.94,7,0,7,0.45
2013-4-25,72.9,59.6,47.8,36.0,25.4,15.2,60,30,13,30.36,30.18,0,0,0,0.00
2013-4-26,80.1,66.7,57.6,55.3,38.7,23.0,65,37,24,30.30,30.12,13,0,13,0.00
2013-4-27,79.5,68.9,64.6,61.9,53.9,43.3,81,62,31,30.18,30.06,0,0,0,0.00
2013-4-28,79.0,69.9,60.3,42.0,36.5,32.1,50,31,19,30.00,29.85,0,0,0,0.00
2013-4-29,84.4,67.8,56.3,61.3,44.2,28.5,96,49,17,30.00,29.83,0,0,0,0.00
2013-4-30,83.8,69.4,62.8,66.2,49.3,33.4,96,55,19,29.91,29.71,0,0,0,0.05
2013-5-1,84.4,70.9,63.5,62.0,48.7,35.1,87,52,19,29.91,29.77,0,0,0,0.00
2013-5-2,75.9,64.2,49.8,58.8,42.6,25.0,84,48,24,30.15,29.85,7,0,7,0.00
2013-5-3,65.7,51.9,42.4,26.1,17.8,5.8,49,28,13,30.21,30.03,1,0,0,0.00
2013-5-4,79.2,57.6,37.4,28.7,20.1,11.0,50,27,12,30.15,29.80,0,0,0,0.00
2013-5-5,67.5,55.0,43.7,26.3,20.1,13.9,42,27,14,30.15,29.94,0,0,0,0.00
2013-5-6,78.3,59.0,41.4,33.8,25.6,17.2,59,32,12,30.15,29.91,0,0,0,0.00
2013-5-7,86.4,67.8,52.7,43.5,30.7,19.9,63,30,10,30.09,29.88,0,0,0,0.00
2013-5-8,83.8,67.5,54.0,54.4,37.3,25.5,71,38,13,30.15,29.94,0,0,0,0.00
2013-5-9,73.4,67.4,59.0,60.1,52.5,45.4,82,60,42,30.06,29.94,0,0,0,0.25
2013-5-10,73.6,66.2,62.2,61.4,54.7,41.9,90,69,35,30.06,29.83,18,1,18,2.17
2013-5-11,84.4,70.4,62.8,62.1,46.3,31.3,90,49,18,30.12,29.88,6,0,6,0.00
2013-5-12,80.6,65.9,55.6,48.4,36.7,25.5,68,37,16,30.24,30.06,6,1,6,0.00
2013-5-13,81.9,63.5,47.5,44.3,28.0,16.1,74,32,11,30.39,30.12,9,1,9,0.00
2013-5-14,84.4,66.6,51.4,58.4,31.8,17.2,79,33,11,30.30,30.06,14,2,14,0.00
2013-5-15,74.3,65.7,56.3,59.7,42.9,34.5,78,45,29,30.15,29.94,12,3,12,0.00
2013-5-16,81.0,71.5,64.8,61.9,47.7,36.0,82,46,21,29.97,29.77,18,5,18,0.00
2013-5-17,86.4,74.6,68.4,61.5,51.0,40.3,76,47,21,29.97,29.83,14,3,14,0.00
2013-5-18,88.7,76.8,70.3,61.8,48.2,36.7,73,40,18,29.94,29.88,14,5,14,0.00
2013-5-19,88.7,77.4,71.4,58.5,48.0,36.6,63,38,17,29.94,29.83,18,6,18,0.00
2013-5-20,86.0,77.4,72.5,63.7,51.6,39.9,74,43,21,29.94,29.77,16,6,16,0.00
2013-5-21,86.4,77.6,72.0,58.2,50.6,39.5,59,41,20,29.88,29.65,21,5,21,0.00
2013-5-22,86.0,73.7,64.6,63.6,52.0,42.4,87,50,23,29.91,29.77,9,0,9,0.04
2013-5-23,88.0,76.1,67.3,70.4,52.4,39.1,87,50,20,30.03,29.88,0,0,0,0.00
2013-5-24,70.7,69.2,67.6,64.9,59.3,55.5,82,71,59,30.12,30.03,0,0,0,0.00
2013-6-9,77.6,71.4,68.7,60.6,55.4,43.1,75,58,30,29.97,29.83,6,0,6,0.00
2013-6-10,92.1,77.1,65.8,72.3,53.5,38.0,95,53,16,29.97,29.88,10,1,10,0.00
2013-6-11,92.8,78.7,68.5,69.5,52.4,38.6,84,46,17,30.06,29.94,13,2,13,0.04
2013-6-12,93.7,80.0,68.9,71.3,51.4,38.1,84,44,16,30.09,29.91,11,2,11,0.00
2013-6-13,96.6,81.3,70.0,70.4,51.9,35.5,84,42,13,30.09,29.83,6,0,6,0.00
2013-6-14,96.1,82.0,69.4,69.9,52.1,37.8,82,41,16,29.97,29.77,9,0,9,0.04
2013-6-15,93.7,77.3,68.9,66.3,55.0,40.8,80,52,18,29.94,29.83,10,0,10,0.04
2013-6-16,93.7,79.8,68.7,71.3,51.6,37.3,86,45,16,30.03,29.88,9,1,9,0.05
2013-6-17,94.6,80.8,71.1,68.7,48.8,28.8,80,39,11,30.03,29.83,10,1,10,0.00
2013-6-18,93.2,77.9,69.4,63.7,52.8,35.5,70,46,16,30.00,29.85,10,1,10,0.00
2013-6-19,85.5,74.7,69.4,69.0,58.1,44.2,85,59,30,30.03,29.94,9,0,9,0.33
2013-6-20,94.1,78.3,69.8,73.0,55.6,36.9,88,52,16,30.06,29.94,12,1,12,0.08
2013-6-21,94.1,78.2,68.9,72.7,53.8,36.6,87,50,17,30.09,29.97,10,1,10,0.04
2013-6-22,91.0,78.1,68.5,72.1,52.5,-12.0,88,48,17,30.06,29.88,46,2,46,0.00
2013-6-23,91.6,78.1,68.5,69.4,50.8,38.0,82,44,17,30.03,29.88,17,1,17,0.00
2013-6-24,91.6,78.8,69.4,68.2,51.2,37.0,80,43,17,30.06,29.94,17,3,17,0.00
2013-6-25,92.1,80.4,72.1,66.3,51.0,38.1,77,41,17,30.06,29.91,18,4,18,0.00
2013-6-26,92.5,79.1,73.2,62.3,53.3,38.9,67,45,16,30.06,29.94,10,2,10,0.00
2013-6-27,92.5,92.5,92.5,39.8,39.8,39.8,16,16,16,30.03,30.03,4,4,4,0.00
2013-6-28,92.5,92.5,92.5,39.8,39.8,39.8,16,16,16,30.03,30.03,4,4,4,0.00
2013-6-29,92.5,92.5,92.5,39.8,39.8,39.8,16,16,16,30.03,30.03,4,4,4,0.00
2013-10-26,67.6,67.6,67.6,52.8,52.8,52.8,59,59,59,29.74,29.74,0,0,0,0.00
2013-10-27,73.2,70.3,67.6,55.1,53.9,52.8,59,56,53,29.97,29.74,0,0,0,0.00
2013-10-28,73.2,68.4,64.4,61.2,48.7,29.0,68,51,20,30.15,29.97,0,0,0,0.00
2013-10-29,80.1,68.7,59.7,61.1,47.0,19.7,81,52,19,30.15,30.00,0,0,0,0.00
2013-10-30,72.3,69.1,64.8,67.0,60.8,50.7,84,75,55,30.09,29.80,0,0,0,0.88
2013-10-31,74.3,67.9,60.6,67.7,61.1,54.6,87,79,63,29.80,29.59,12,0,12,2.62
2013-11-1,75.0,62.5,54.1,61.6,40.1,17.2,98,55,13,29.94,29.71,0,0,0,0.00
2013-11-2,68.4,57.6,44.8,53.2,24.5,6.0,81,33,12,30.30,29.94,0,0,0,0.00
2013-11-3,65.7,51.3,42.6,30.1,19.9,9.8,53,32,13,30.36,30.12,0,0,0,0.00
2013-11-4,74.8,60.6,44.4,34.2,27.2,18.8,54,31,13,30.21,30.03,6,0,6,0.00
2013-11-5,77.2,68.0,60.1,47.0,39.5,28.1,54,37,21,30.09,29.91,0,0,0,0.00
2013-11-6,81.0,66.6,49.8,58.7,43.8,26.3,70,46,20,30.24,29.94,1,0,0,0.17
2013-11-7,63.1,51.3,43.0,27.2,16.5,6.0,46,28,13,30.44,30.24,1,0,0,0.00
2013-11-8,64.8,51.8,42.6,28.3,18.9,9.1,50,30,12,30.50,30.24,0,0,0,0.00
2013-11-9,68.4,55.7,46.4,30.9,24.0,13.4,50,32,14,30.36,30.18,0,0,0,0.00
2013-11-10,69.3,56.2,46.8,33.4,28.0,23.6,49,35,19,30.39,30.18,0,0,0,0.00
2013-11-11,72.3,57.0,47.7,33.3,28.1,16.1,56,37,13,30.33,30.15,0,0,0,0.00
2013-11-12,69.6,52.0,38.7,47.5,24.9,4.0,84,37,17,30.68,30.30,4,0,0,0.00
2013-11-13,52.9,39.4,28.9,7.4,4.1,-1.1,38,24,15,30.80,30.44,4,0,2,0.00
2013-11-14,58.1,42.1,28.2,20.5,11.7,5.1,44,31,14,30.53,30.21,0,0,0,0.00
2013-11-15,75.9,59.0,44.4,35.0,29.1,20.4,48,34,17,30.24,29.94,0,0,0,0.00
2013-11-16,75.6,66.6,53.6,66.9,49.5,34.2,87,57,28,30.06,29.77,0,0,0,0.00
2013-11-17,82.2,74.2,70.2,67.2,54.8,36.4,83,56,21,29.94,29.77,0,0,0,0.04
2013-11-18,71.4,64.9,55.2,63.4,34.6,11.1,81,39,14,30.15,29.94,0,0,0,0.04
2013-11-19,65.5,53.9,43.7,20.4,14.3,8.9,38,22,12,30.24,30.06,0,0,0,0.00
2013-11-20,68.9,54.6,38.8,33.9,19.0,11.4,38,26,14,30.21,29.94,0,0,0,0.00
2013-11-21,74.5,67.0,59.2,60.9,44.2,34.2,77,46,26,30.15,29.94,0,0,0,0.00
2013-11-22,70.2,60.7,47.3,65.1,53.5,39.6,87,78,43,30.27,30.06,0,0,0,0.04
2013-11-23,49.3,45.7,40.5,46.5,32.8,12.2,90,62,31,30.44,30.24,4,0,4,0.04
2013-11-24,47.3,40.7,35.4,16.2,5.2,0.0,42,23,16,30.56,30.36,5,0,5,0.00
2013-11-25,39.6,37.1,34.9,33.1,25.6,14.3,80,65,40,30.42,29.97,2,0,0,0.83
2013-11-26,39.0,37.4,36.0,32.7,30.7,19.0,80,77,48,30.39,29.94,4,0,4,0.46
2013-11-27,45.9,36.0,27.7,29.1,12.0,-1.1,76,42,16,30.62,30.36,1,0,1,0.00
2013-11-28,48.2,35.2,27.3,19.4,10.7,4.5,58,38,19,30.74,30.53,0,0,0,0.00
2013-11-29,57.7,38.7,26.1,21.2,9.5,0.6,58,34,14,30.77,30.50,0,0,0,0.00
2013-11-30,64.2,46.1,30.9,28.6,16.9,10.8,51,34,15,30.62,30.30,0,0,0,0.00
2013-12-1,66.6,55.7,43.0,41.7,30.3,22.3,58,40,20,30.36,30.03,1,1,0,0.00
2013-12-2,70.7,60.5,57.7,53.3,42.4,30.7,74,53,24,30.03,29.83,1,1,1,0.00
2013-12-16,69.4,44.0,36.3,32.0,15.1,7.5,40,31,25,30.39,29.85,0,0,0,0.00
2013-12-17,51.6,36.2,28.9,27.1,15.0,10.7,61,42,31,30.53,30.36,0,0,0,0.00
2013-12-18,67.3,48.5,34.0,46.8,18.8,6.5,82,36,12,30.42,30.21,0,0,0,0.00
2013-12-19,70.7,58.9,45.5,46.9,35.0,26.4,67,43,21,30.30,29.94,0,0,0,0.00
2013-12-20,71.1,67.5,66.9,52.6,47.2,44.0,59,48,38,29.97,29.91,15,4,15,0.00
2013-12-22,67.6,67.6,67.6,52.8,52.8,52.8,59,59,59,29.74,29.74,0,0,0,0.00
2013-12-24,67.6,41.2,34.0,52.8,4.3,-2.2,59,22,16,30.50,29.74,0,0,0,0.00
2013-12-25,57.9,43.2,29.1,17.4,10.2,2.4,52,29,14,30.50,30.30,0,0,0,0.00
2013-12-26,61.7,47.6,36.5,20.5,14.0,5.8,46,28,13,30.56,30.33,0,0,0,0.00
2013-12-27,52.3,45.4,41.5,20.4,13.2,5.9,41,28,18,30.53,30.36,0,0,0,0.00
2013-12-28,53.2,44.6,36.9,17.6,11.2,5.8,40,26,15,30.39,30.06,0,0,0,0.00
2013-12-29,65.3,47.1,31.6,27.8,13.1,4.9,53,29,12,30.27,30.00,0,0,0,0.00
2013-12-30,48.2,41.5,36.5,22.6,12.1,8.0,39,30,25,30.48,30.18,1,0,0,0.00
2013-12-31,48.2,40.5,35.6,17.6,13.0,6.7,40,33,19,30.50,30.36,0,0,0,0.00
2014-1-1,60.6,50.0,41.5,32.8,23.9,14.5,45,36,25,30.39,30.12,0,0,0,0.00
2014-1-2,55.2,44.1,31.3,38.7,8.7,-5.4,54,25,15,30.53,30.12,5,0,5,0.00